Cross wind - olosuhteita (tai muuten puuskaa) tyrkyllä tänään..

(1/1)

flykarppa:
EFOU 241350Z AUTO 31021G31KT 9999 SCT039/// 03/M05 Q0999 1219//95

--> menossa ollaan

jari

flykarppa:
Quote

Sehän on melkein baanan suunnassa, tylsää 


Näin oli. Mutta hauskuus-takuuta ei luvattukaan 

jari

Navigation

Up one level